Winchester, VA

4:58 PM EDT on August 22, 2017 (GMT -0400)
Winchester Regional

Weather History for KOKV - April, 2014

Change the Weather History Date:

Tuesday, April 22, 2014

  Actual Average Record
Temperature  
Mean Temperature 61 °F -  
Max Temperature 69 °F 67 °F 86 °F (1985)
Min Temperature 53 °F 43 °F 32 °F (2013)
Degree Days  
Heating Degree Days 4    
Growing Degree Days 11 (Base 50)    
Moisture  
Dew Point 43 °F    
Average Humidity 51    
Maximum Humidity 77    
Minimum Humidity 36    
Precipitation  
Precipitation 0.00 in - - ()
Sea Level Pressure  
Sea Level Pressure 29.70 in    
Wind  
Wind Speed 6 mph (WSW)    
Max Wind Speed 15 mph    
Max Gust Speed 24 mph    
Visibility 10 miles    
Events Rain    
Averages and records for this station are not official NWS values.
T = Trace of Precipitation, MM = Missing Value Source: NWS Daily Summary

Daily Weather History Graph

Daily Weather History Graph

Search for Another Location

Airport or City:

Trip Planner

Search our weather history database for the weather conditions in past years. The results will help you decide how hot, cold, wet, or windy it might be!

Date:

Astronomy

Apr. 22, 2014 Rise Set
Actual Time 6:25 AM EDT 7:56 PM EDT
Civil Twilight 5:57 AM EDT 8:25 PM EDT
Nautical Twilight 5:23 AM EDT 8:59 PM EDT
Astronomical Twilight 4:48 AM EDT 9:34 PM EDT
Moon 2:10 AM EDT 12:59 PM EDT
Length of Visible Light 14h 27m
Length of Day
13h 30m
Last Quarter, 46% of the Moon is Illuminated
Apr 22
Last Quarter
Apr 29
New
May 6
First Quarter
May 14
Full
May 21
Last Quarter

Hourly Weather History & Observations

Time (EDT) Temp. Dew Point Humidity Pressure Visibility Wind Dir Wind Speed Gust Speed Precip Events Conditions
12:15 AM 55.4 °F 30.2 °F 38% 29.85 in 10.0 mi SSW 4.6 mph - N/A   Clear
12:35 AM 57.2 °F 30.2 °F 36% 29.84 in 10.0 mi SSW 3.5 mph - N/A   Clear
12:55 AM 57.2 °F 32.0 °F 38% 29.83 in 10.0 mi SSE 3.5 mph - N/A   Clear
1:15 AM 53.6 °F 32.0 °F 44% 29.83 in 10.0 mi SSW 3.5 mph - N/A   Clear
1:35 AM 55.4 °F 32.0 °F 41% 29.82 in 10.0 mi Calm Calm - N/A   Clear
1:55 AM 57.2 °F 32.0 °F 38% 29.81 in 10.0 mi South 3.5 mph - N/A   Clear
2:15 AM 57.2 °F 32.0 °F 38% 29.80 in 10.0 mi SSW 4.6 mph - N/A   Clear
2:35 AM 55.4 °F 32.0 °F 41% 29.79 in 10.0 mi SSW 5.8 mph - N/A   Clear
2:55 AM 55.4 °F 32.0 °F 41% 29.78 in 10.0 mi SSW 4.6 mph - N/A   Clear
3:15 AM 55.4 °F 32.0 °F 41% 29.78 in 10.0 mi SSW 5.8 mph - N/A   Clear
3:35 AM 55.4 °F 33.8 °F 44% 29.77 in 10.0 mi Calm Calm - N/A   Clear
3:55 AM 57.2 °F 32.0 °F 38% 29.77 in 10.0 mi South 4.6 mph - N/A   Clear
4:15 AM 59.0 °F 32.0 °F 36% 29.77 in 10.0 mi SSW 5.8 mph - N/A   Clear
4:35 AM 59.0 °F 32.0 °F 36% 29.76 in 10.0 mi SW 5.8 mph - N/A   Clear
4:55 AM 59.0 °F 32.0 °F 36% 29.76 in 10.0 mi SW 4.6 mph - N/A   Clear
5:15 AM 59.0 °F 32.0 °F 36% 29.75 in 10.0 mi SW 8.1 mph - N/A   Clear
5:35 AM 59.0 °F 32.0 °F 36% 29.75 in 10.0 mi SW 8.1 mph - N/A   Clear
6:15 AM 59.0 °F 32.0 °F 36% 29.73 in 10.0 mi SW 6.9 mph - N/A   Clear
6:35 AM 59.0 °F 32.0 °F 36% 29.74 in 10.0 mi SW 4.6 mph - N/A   Clear
6:55 AM 59.0 °F 33.8 °F 39% 29.74 in 10.0 mi SW 3.5 mph - N/A   Clear
7:15 AM 59.0 °F 35.6 °F 42% 29.74 in 10.0 mi SW 8.1 mph - N/A   Clear
7:35 AM 60.8 °F 35.6 °F 39% 29.73 in 10.0 mi WSW 8.1 mph - N/A   Clear
7:55 AM 60.8 °F 35.6 °F 39% 29.73 in 10.0 mi SW 8.1 mph - N/A   Clear
8:15 AM 60.8 °F 35.6 °F 39% 29.72 in 10.0 mi WSW 9.2 mph - N/A   Clear
8:35 AM 62.6 °F 35.6 °F 37% 29.72 in 10.0 mi SW 8.1 mph - N/A   Clear
8:55 AM 62.6 °F 37.4 °F 39% 29.71 in 10.0 mi SW 5.8 mph - N/A   Clear
9:15 AM 64.4 °F 37.4 °F 37% 29.71 in 10.0 mi SW 5.8 mph - N/A   Clear
9:35 AM 64.4 °F 37.4 °F 37% 29.71 in 10.0 mi SW 8.1 mph - N/A   Scattered Clouds
9:55 AM 66.2 °F 39.2 °F 37% 29.71 in 10.0 mi WSW 5.8 mph - N/A   Scattered Clouds
10:15 AM 68.0 °F 41.0 °F 37% 29.70 in 10.0 mi West 6.9 mph - N/A   Mostly Cloudy
10:35 AM 68.0 °F 42.8 °F 40% 29.70 in 10.0 mi SW 3.5 mph - N/A Rain Light Rain
10:55 AM 66.2 °F 46.4 °F 49% 29.70 in 10.0 mi SW 5.8 mph - N/A Rain Light Rain
11:15 AM 62.6 °F 50.0 °F 63% 29.70 in 10.0 mi SSW 5.8 mph - N/A Rain Light Rain
11:35 AM 64.4 °F 48.2 °F 56% 29.70 in 10.0 mi WSW 4.6 mph - N/A Rain Light Rain
11:55 AM 64.4 °F 46.4 °F 52% 29.69 in 10.0 mi SW 6.9 mph - N/A Rain Light Rain
12:15 PM 64.4 °F 50.0 °F 59% 29.69 in 10.0 mi SSW 5.8 mph - N/A Rain Light Rain
12:35 PM 62.6 °F 51.8 °F 68% 29.68 in 10.0 mi SSW 5.8 mph - N/A Rain Light Rain
12:55 PM 62.6 °F 51.8 °F 68% 29.68 in 10.0 mi West 5.8 mph - N/A Rain Light Rain
1:15 PM 62.6 °F 51.8 °F 68% 29.68 in 10.0 mi WSW 4.6 mph - N/A   Light Drizzle
1:35 PM 62.6 °F 51.8 °F 68% 29.68 in 10.0 mi SSW 3.5 mph - N/A Rain Rain
1:55 PM 62.6 °F 51.8 °F 68% 29.67 in 10.0 mi SSW 4.6 mph - N/A Rain Light Rain
2:15 PM 64.4 °F 53.6 °F 68% 29.67 in 10.0 mi SW 3.5 mph - N/A Rain Light Rain
2:35 PM 66.2 °F 53.6 °F 64% 29.65 in 10.0 mi West 3.5 mph - N/A   Overcast
2:55 PM 68.0 °F 53.6 °F 60% 29.65 in 10.0 mi WSW 9.2 mph - N/A   Overcast
3:15 PM 69.8 °F 51.8 °F 53% 29.64 in 10.0 mi West 13.8 mph - N/A   Overcast
3:35 PM 68.0 °F 51.8 °F 56% 29.63 in 10.0 mi West 8.1 mph - N/A   Overcast
3:55 PM 68.0 °F 51.8 °F 56% 29.62 in 10.0 mi WNW 10.4 mph - N/A   Overcast
4:15 PM 68.0 °F 51.8 °F 56% 29.62 in 10.0 mi WNW 10.4 mph - N/A   Overcast
4:35 PM 68.0 °F 51.8 °F 56% 29.62 in 10.0 mi West 13.8 mph - N/A   Overcast
4:55 PM 68.0 °F 50.0 °F 52% 29.63 in 10.0 mi WSW 8.1 mph - N/A   Overcast
5:15 PM 68.0 °F 50.0 °F 52% 29.62 in 10.0 mi WSW 11.5 mph - N/A   Overcast
5:35 PM 68.0 °F 51.8 °F 56% 29.61 in 10.0 mi SW 10.4 mph - N/A   Scattered Clouds
5:55 PM 68.0 °F 53.6 °F 60% 29.61 in 10.0 mi SW 6.9 mph - N/A   Clear
6:15 PM 68.0 °F 53.6 °F 60% 29.60 in 10.0 mi SSW 9.2 mph - N/A   Clear
6:35 PM 68.0 °F 51.8 °F 56% 29.60 in 10.0 mi West 11.5 mph 18.4 mph N/A   Clear
6:55 PM 68.0 °F 51.8 °F 56% 29.59 in 10.0 mi WSW 9.2 mph - N/A   Clear
7:15 PM 68.0 °F 50.0 °F 52% 29.60 in 10.0 mi WSW 8.1 mph - N/A   Clear
7:35 PM 68.0 °F 50.0 °F 52% 29.60 in 10.0 mi West 9.2 mph - N/A   Clear
7:55 PM 68.0 °F 46.4 °F 46% 29.60 in 10.0 mi West 9.2 mph 18.4 mph N/A   Clear
8:15 PM 66.2 °F 46.4 °F 49% 29.61 in 10.0 mi West 8.1 mph - N/A   Clear
8:35 PM 62.6 °F 50.0 °F 63% 29.63 in 10.0 mi NE 10.4 mph - N/A   Scattered Clouds
8:55 PM 60.8 °F 50.0 °F 68% 29.65 in 10.0 mi North 5.8 mph - N/A   Mostly Cloudy
9:15 PM 59.0 °F 50.0 °F 72% 29.67 in 10.0 mi NNW 4.6 mph - N/A   Mostly Cloudy
9:35 PM 59.0 °F 50.0 °F 72% 29.67 in 10.0 mi North 3.5 mph - N/A   Scattered Clouds
9:55 PM 57.2 °F 50.0 °F 77% 29.68 in 10.0 mi NNW 5.8 mph - N/A   Clear
10:15 PM 57.2 °F 50.0 °F 77% 29.68 in 10.0 mi NNW 10.4 mph - N/A   Clear
10:35 PM 57.2 °F 50.0 °F 77% 29.69 in 10.0 mi NNW 13.8 mph 21.9 mph N/A   Clear
10:55 PM 57.2 °F 46.4 °F 67% 29.70 in 10.0 mi NW 13.8 mph 24.2 mph N/A   Clear
11:15 PM 55.4 °F 46.4 °F 72% 29.71 in 10.0 mi NNW 13.8 mph - N/A   Mostly Cloudy
11:35 PM 55.4 °F 42.8 °F 63% 29.72 in 10.0 mi NW 11.5 mph 21.9 mph N/A   Mostly Cloudy
11:55 PM 53.6 °F 41.0 °F 62% 29.71 in 10.0 mi NW 15.0 mph 21.9 mph N/A   Scattered Clouds